Time;durP1;ratioP1;P1;durP2;ratioP2;P2;SDS_P1;SDS_P2;PMS_P1;PMS_P2;Temp;Humidity;BMP_temperature;BMP_pressure;BME280_temperature;BME280_humidity;BME280_pressure;Samples;Min_cycle;Max_cycle;Signal;HPM_P1;HPM_P2
2022/07/27 00:03:24;;;;;;;3.28;2.22;;;;;;;19.63;63.13;99792.22;12201068;19;20614;-87
2022/07/27 00:07:26;;;;;;;4.68;2.10;;;;;;;19.53;63.41;99791.31;12173932;19;20018;-87
2022/07/27 00:11:27;;;;;;;4.03;2.00;;;;;;;19.48;63.69;99791.44;12209289;19;20082;-87
2022/07/27 00:15:35;;;;;;;4.38;1.90;;;;;;;19.45;63.91;99794.81;12203046;19;20007;-88
2022/07/27 00:19:51;;;;;;;7.18;2.15;;;;;;;19.47;64.28;99792.53;12190270;19;20011;-87
2022/07/27 00:23:53;;;;;;;2.05;1.70;;;;;;;19.53;64.35;99804.47;12209911;19;20783;-87
2022/07/27 00:27:58;;;;;;;2.67;2.00;;;;;;;19.53;64.70;99794.09;12211294;19;20011;-89
2022/07/27 00:32:03;;;;;;;3.03;1.90;;;;;;;19.57;65.06;99799.88;12206221;19;20039;-89
2022/07/27 00:36:43;;;;;;;6.10;1.75;;;;;;;19.61;65.00;99788.94;12274670;19;20013;-87
2022/07/27 00:40:49;;;;;;;3.95;2.28;;;;;;;19.61;65.04;99789.75;12217005;19;20021;-88
2022/07/27 00:45:12;;;;;;;2.38;1.52;;;;;;;19.58;65.17;99790.38;12210053;19;20007;-88
2022/07/27 00:49:56;;;;;;;3.10;1.70;;;;;;;19.59;65.35;99800.41;12233534;19;20031;-88
2022/07/27 00:54:35;;;;;;;4.25;1.58;;;;;;;19.57;65.23;99800.75;12206436;19;20606;-88
2022/07/27 00:59:01;;;;;;;4.03;2.05;;;;;;;19.58;64.94;99807.97;12230488;19;20508;-88
2022/07/27 01:03:12;;;;;;;3.30;1.55;;;;;;;19.57;65.27;99802.69;12221149;19;20022;-87
2022/07/27 01:07:43;;;;;;;2.47;1.50;;;;;;;19.60;65.28;99802.06;12200204;19;20094;-88
2022/07/27 01:11:51;;;;;;;3.05;1.38;;;;;;;19.56;65.31;99801.88;12194568;19;20483;-88
2022/07/27 01:16:05;;;;;;;5.68;1.67;;;;;;;19.49;65.90;99807.03;12244038;19;20010;-88
2022/07/27 01:20:07;;;;;;;5.15;1.55;;;;;;;19.46;66.12;99804.88;12187097;19;20039;-86
2022/07/27 01:24:09;;;;;;;3.43;1.73;;;;;;;19.40;66.92;99817.28;12196101;19;20248;-86
2022/07/27 01:28:17;;;;;;;3.67;1.70;;;;;;;19.38;67.29;99808.38;12186539;19;20082;-87
2022/07/27 01:32:20;;;;;;;2.15;1.40;;;;;;;19.39;66.59;99809.19;12207691;19;20011;-85
2022/07/27 01:36:24;;;;;;;1.60;1.23;;;;;;;19.38;67.24;99805.56;12196886;19;20007;-85
2022/07/27 01:40:26;;;;;;;2.45;1.50;;;;;;;19.36;67.05;99805.06;12184472;19;20026;-86
2022/07/27 01:44:32;;;;;;;1.60;1.10;;;;;;;19.37;66.95;99806.72;12199959;19;20082;-86
2022/07/27 01:48:37;;;;;;;2.45;1.20;;;;;;;19.34;67.36;99797.00;12208565;19;20031;-87
2022/07/27 01:52:39;;;;;;;1.35;0.90;;;;;;;19.35;67.05;99800.59;12184125;19;20015;-88
2022/07/27 01:56:45;;;;;;;1.73;1.10;;;;;;;19.34;67.55;99807.34;12205414;19;20031;-87
2022/07/27 02:00:51;;;;;;;2.55;0.95;;;;;;;19.36;67.05;99793.88;12204069;19;20007;-85
2022/07/27 02:04:53;;;;;;;1.33;1.00;;;;;;;19.33;67.67;99794.50;12186074;19;20040;-85
2022/07/27 02:08:57;;;;;;;1.80;0.95;;;;;;;19.35;66.98;99786.63;12203447;19;20012;-86
2022/07/27 02:12:59;;;;;;;3.70;1.00;;;;;;;19.35;66.65;99792.22;12198479;19;20002;-87
2022/07/27 02:17:00;;;;;;;3.67;1.23;;;;;;;19.28;66.89;99797.41;12176855;19;20007;-87
2022/07/27 02:21:04;;;;;;;4.70;0.88;;;;;;;19.22;66.96;99791.09;12204299;19;20037;-87
2022/07/27 02:25:07;;;;;;;1.92;0.90;;;;;;;19.20;66.74;99796.13;12176681;19;20077;-86
2022/07/27 02:29:09;;;;;;;0.98;0.80;;;;;;;19.16;66.50;99783.09;12190708;19;20002;-86
2022/07/27 02:33:11;;;;;;;3.33;1.10;;;;;;;19.12;66.79;99778.09;12198364;19;20089;-85
2022/07/27 02:37:12;;;;;;;1.10;0.70;;;;;;;19.07;66.30;99778.22;12180183;19;20014;-87
2022/07/27 02:41:14;;;;;;;2.97;0.80;;;;;;;18.98;66.45;99785.66;12197330;19;20014;-88
2022/07/27 02:45:16;;;;;;;3.15;1.08;;;;;;;18.90;66.60;99794.72;12195121;19;20071;-88
2022/07/27 02:49:19;;;;;;;2.40;0.80;;;;;;;18.81;67.05;99800.19;12178214;19;20011;-87
2022/07/27 02:53:22;;;;;;;;;;;;;;;18.74;67.93;99796.97;12199005;19;20015;-87
2022/07/27 02:57:24;;;;;;;2.40;0.82;;;;;;;18.71;68.03;99791.09;12204505;19;19915;-85
2022/07/27 03:01:27;;;;;;;2.40;0.80;;;;;;;18.73;67.60;99786.06;12185171;19;20461;-87
2022/07/27 03:05:36;;;;;;;1.58;0.73;;;;;;;18.70;68.21;99781.91;12197693;19;20033;-86
2022/07/27 03:09:40;;;;;;;2.67;0.80;;;;;;;18.61;68.40;99784.56;12201379;19;20010;-87
2022/07/27 03:13:42;;;;;;;2.42;1.10;;;;;;;18.53;69.52;99785.25;12167476;19;20017;-86
2022/07/27 03:17:44;;;;;;;2.60;0.80;;;;;;;18.47;68.96;99788.41;12190220;19;20013;-86
2022/07/27 03:21:49;;;;;;;4.40;1.20;;;;;;;18.38;69.90;99800.28;12192140;19;20011;-86
2022/07/27 03:25:50;;;;;;;4.10;1.00;;;;;;;18.31;70.49;99802.59;12174567;19;20006;-84
2022/07/27 03:29:52;;;;;;;2.45;0.80;;;;;;;18.24;71.45;99795.75;12193027;19;20074;-84
2022/07/27 03:33:54;;;;;;;2.67;1.20;;;;;;;18.26;70.72;99790.69;12192883;19;20014;-86
2022/07/27 03:38:01;;;;;;;3.33;1.05;;;;;;;18.18;72.28;99798.59;12173756;19;20021;-87
2022/07/27 03:42:03;;;;;;;2.63;1.30;;;;;;;18.11;72.95;99795.34;12195824;19;20011;-86
2022/07/27 03:46:05;;;;;;;3.42;1.30;;;;;;;18.11;72.75;99794.53;12178686;19;20353;-84
2022/07/27 03:50:07;;;;;;;3.65;1.48;;;;;;;18.14;71.93;99805.06;12207009;19;20010;-84
2022/07/27 03:54:09;;;;;;;2.33;1.33;;;;;;;18.15;72.07;99804.78;12201849;19;20010;-84
2022/07/27 03:58:10;;;;;;;3.28;1.55;;;;;;;18.13;72.74;99806.22;12186009;19;20085;-84
2022/07/27 04:02:12;;;;;;;3.63;1.20;;;;;;;18.13;73.37;99811.78;12218593;19;20113;-83
2022/07/27 04:06:14;;;;;;;2.35;0.95;;;;;;;18.13;73.24;99818.19;12210960;19;20007;-85
2022/07/27 04:10:17;;;;;;;4.13;1.52;;;;;;;18.14;72.73;99819.84;12235860;19;20006;-85
2022/07/27 04:14:20;;;;;;;1.98;1.00;;;;;;;18.09;73.84;99822.72;12221482;19;20015;-86
2022/07/27 04:18:24;;;;;;;3.20;1.00;;;;;;;18.15;74.09;99817.91;12214396;19;20002;-86
2022/07/27 04:22:32;;;;;;;1.90;1.13;;;;;;;18.20;74.19;99817.81;12181897;19;20014;-86
2022/07/27 04:26:44;;;;;;;2.53;1.23;;;;;;;18.15;74.91;99815.13;12206431;19;20010;-87
2022/07/27 04:30:46;;;;;;;4.45;1.08;;;;;;;18.19;75.25;99825.34;12218917;19;20493;-86
2022/07/27 04:34:48;;;;;;;1.67;1.00;;;;;;;18.29;74.01;99820.75;12187159;19;20021;-85
2022/07/27 04:38:50;;;;;;;5.50;1.20;;;;;;;18.25;74.82;99803.81;12210017;19;20082;-83
2022/07/27 04:42:51;;;;;;;3.95;1.77;;;;;;;18.22;75.62;99802.44;12201771;19;20078;-85
2022/07/27 04:46:53;;;;;;;2.90;1.20;;;;;;;18.32;74.50;99820.16;12178975;19;20017;-86
2022/07/27 04:50:54;;;;;;;7.13;1.33;;;;;;;18.33;74.69;99819.06;12210387;19;20139;-83
2022/07/27 04:54:56;;;;;;;3.58;1.73;;;;;;;18.39;74.35;99821.47;12207778;19;20007;-85
2022/07/27 04:58:58;;;;;;;5.10;1.13;;;;;;;18.39;74.65;99817.84;12181116;19;20412;-83
2022/07/27 05:03:03;;;;;;;4.28;1.10;;;;;;;18.39;74.70;99824.25;12206591;19;20027;-87
2022/07/27 05:07:07;;;;;;;4.47;1.35;;;;;;;18.36;75.56;99824.84;12188287;19;20039;-83
2022/07/27 05:11:23;;;;;;;5.60;1.30;;;;;;;18.48;74.77;99832.78;12202079;19;20034;-87
2022/07/27 05:15:29;;;;;;;6.47;2.10;;;;;;;18.58;74.41;99831.78;12199814;19;20015;-86
2022/07/27 05:19:51;;;;;;;2.22;1.20;;;;;;;18.64;73.94;99836.16;12183617;19;20035;-88
2022/07/27 05:23:58;;;;;;;9.70;1.48;;;;;;;18.60;74.26;99832.31;12212091;19;20010;-86
2022/07/27 05:28:04;;;;;;;5.18;1.38;;;;;;;18.72;73.76;99834.66;12201861;19;20479;-87
2022/07/27 05:32:28;;;;;;;2.30;0.93;;;;;;;18.78;73.17;99853.00;12225827;19;20036;-87
2022/07/27 05:37:19;;;;;;;4.75;1.20;;;;;;;18.82;73.06;99856.84;12205414;19;20034;-88
2022/07/27 05:42:05;;;;;;;4.90;1.40;;;;;;;18.85;73.18;99868.22;12188916;19;20015;-88
2022/07/27 05:46:09;;;;;;;2.05;1.17;;;;;;;18.87;72.15;99859.56;12181180;19;20511;-84
2022/07/27 05:50:12;;;;;;;7.85;1.95;;;;;;;18.80;72.41;99865.53;12198779;19;20015;-83
2022/07/27 05:54:17;;;;;;;6.53;1.30;;;;;;;18.70;72.76;99865.63;12192845;19;20739;-86
2022/07/27 05:58:34;;;;;;;5.28;1.52;;;;;;;18.76;71.99;99869.22;12123468;19;20511;-85
2022/07/27 06:02:51;;;;;;;4.85;1.58;;;;;;;18.75;72.48;99867.56;12209512;19;20472;-86
2022/07/27 06:11:36;;;;;;;3.50;1.38;;;;;;;18.83;72.29;99880.84;12199674;19;20010;-84
2022/07/27 06:15:39;;;;;;;3.97;1.65;;;;;;;18.95;71.53;99878.41;12199511;19;20011;-85
2022/07/27 06:19:40;;;;;;;4.53;1.30;;;;;;;19.15;70.71;99882.00;12176761;19;20667;-86
2022/07/27 06:23:43;;;;;;;4.20;1.58;;;;;;;19.29;70.06;99888.44;12201103;19;20018;-86
2022/07/27 06:27:51;;;;;;;3.20;1.20;;;;;;;19.47;69.23;99892.31;12197265;19;20010;-88
2022/07/27 06:31:54;;;;;;;2.50;1.10;;;;;;;19.59;68.78;99887.88;12205467;19;20021;-86
2022/07/27 06:36:13;;;;;;;5.15;1.70;;;;;;;19.57;67.75;99889.31;12202272;19;20031;-84
2022/07/27 06:40:17;;;;;;;2.85;1.55;;;;;;;19.46;68.26;99891.50;12180595;19;20011;-86
2022/07/27 06:44:18;;;;;;;5.30;1.65;;;;;;;19.37;68.59;99896.13;12199160;19;20011;-85
2022/07/27 06:48:22;;;;;;;5.38;1.42;;;;;;;19.37;68.12;99886.94;12200489;19;20019;-85
2022/07/27 06:52:25;;;;;;;7.47;1.50;;;;;;;19.44;67.80;99884.56;12190900;19;20003;-86
2022/07/27 06:56:28;;;;;;;3.35;1.40;;;;;;;19.65;66.91;99897.03;12202021;19;20135;-84
2022/07/27 07:00:30;;;;;;;3.83;1.35;;;;;;;19.81;66.33;99886.41;12201955;19;20002;-85
2022/07/27 07:05:10;;;;;;;8.68;1.60;;;;;;;19.82;65.82;99884.44;12170741;19;20020;-85
2022/07/27 07:09:12;;;;;;;7.72;1.10;;;;;;;19.91;66.33;99894.59;12204007;19;20039;-84
2022/07/27 07:13:15;;;;;;;6.27;2.30;;;;;;;20.11;65.10;99895.31;12189234;19;20015;-83
2022/07/27 07:17:16;;;;;;;1.97;1.00;;;;;;;20.37;64.64;99895.59;12202847;19;20809;-86
2022/07/27 07:21:20;;;;;;;4.53;1.45;;;;;;;20.54;63.67;99901.41;12206413;19;20011;-86
2022/07/27 07:25:22;;;;;;;5.40;1.20;;;;;;;20.33;63.27;99901.00;12187505;19;20002;-85
2022/07/27 07:29:24;;;;;;;7.03;1.48;;;;;;;20.42;63.40;99903.88;12195136;19;20027;-85
2022/07/27 07:33:26;;;;;;;7.30;1.73;;;;;;;20.62;61.97;99905.44;12202493;19;20082;-82
2022/07/27 07:37:28;;;;;;;7.80;1.65;;;;;;;20.79;62.03;99902.81;12178507;19;20019;-85
2022/07/27 07:41:35;;;;;;;6.40;1.60;;;;;;;21.21;60.39;99911.88;12191549;19;20023;-85
2022/07/27 07:45:37;;;;;;;3.15;1.10;;;;;;;21.26;59.46;99902.50;12205349;19;20065;-85
2022/07/27 07:49:52;;;;;;;5.57;1.90;;;;;;;21.28;57.98;99900.22;12164735;19;20010;-83
2022/07/27 07:53:54;;;;;;;4.38;1.60;;;;;;;21.21;57.96;99902.63;12200286;19;20070;-87
2022/07/27 07:57:56;;;;;;;4.05;1.38;;;;;;;21.41;58.15;99899.34;12203889;19;20078;-86
2022/07/27 08:01:58;;;;;;;4.68;1.08;;;;;;;21.44;58.41;99901.50;12182424;19;20023;-84
2022/07/27 08:06:02;;;;;;;;;;;;;;;21.37;58.11;99899.16;12202435;19;20472;-86
2022/07/27 08:10:06;;;;;;;4.25;1.40;;;;;;;21.41;57.86;99904.13;12203740;19;19926;-85
2022/07/27 08:14:08;;;;;;;5.13;1.58;;;;;;;21.41;57.59;99907.75;12177782;19;20011;-86
2022/07/27 08:18:11;;;;;;;4.75;1.42;;;;;;;21.42;57.98;99908.56;12191340;19;20381;-88
2022/07/27 08:22:15;;;;;;;8.52;1.60;;;;;;;21.59;57.47;99911.47;12176262;19;20007;-85
2022/07/27 08:26:17;;;;;;;7.18;1.90;;;;;;;21.85;56.62;99923.66;12187676;19;20015;-84
2022/07/27 08:30:18;;;;;;;4.35;1.50;;;;;;;21.90;55.81;99924.69;12200662;19;20495;-84
2022/07/27 08:34:21;;;;;;;4.35;1.23;;;;;;;21.99;55.92;99915.16;12181985;19;20006;-84
2022/07/27 08:38:26;;;;;;;6.07;1.75;;;;;;;22.17;54.98;99912.47;12205248;19;20010;-84
2022/07/27 08:42:28;;;;;;;4.82;1.83;;;;;;;22.62;54.27;99918.69;12204481;19;20015;-85
2022/07/27 08:46:31;;;;;;;10.18;1.90;;;;;;;23.07;51.84;99915.59;12186067;19;20011;-86
2022/07/27 08:50:34;;;;;;;6.88;1.60;;;;;;;23.21;51.91;99921.06;12215752;19;20011;-86
2022/07/27 08:54:40;;;;;;;1.95;1.30;;;;;;;23.07;51.24;99917.59;12217917;19;20010;-87
2022/07/27 08:58:44;;;;;;;2.80;1.30;;;;;;;23.32;51.07;99924.34;12197134;19;20031;-86
2022/07/27 09:02:46;;;;;;;2.97;1.30;;;;;;;23.61;50.54;99915.19;12214452;19;20078;-84
2022/07/27 09:06:50;;;;;;;6.20;1.83;;;;;;;23.65;49.85;99914.19;12212392;19;20014;-88
2022/07/27 09:10:55;;;;;;;5.18;1.75;;;;;;;23.58;48.74;99916.69;12185128;19;20396;-86
2022/07/27 09:15:04;;;;;;;;;;;;;;;23.76;47.92;99920.31;12211176;19;20031;-86
2022/07/27 09:19:09;;;;;;;5.38;1.60;;;;;;;23.63;47.78;99919.31;12199268;19;19910;-86
2022/07/27 09:23:24;;;;;;;3.92;1.60;;;;;;;23.66;47.92;99921.47;12206997;19;20093;-86
2022/07/27 09:27:30;;;;;;;8.35;1.88;;;;;;;23.42;47.90;99918.38;12204764;19;20021;-82
2022/07/27 09:31:40;;;;;;;10.20;2.38;;;;;;;23.62;47.32;99922.50;12191445;19;20088;-86
2022/07/27 09:35:45;;;;;;;6.10;1.88;;;;;;;23.71;47.15;99923.31;12203360;19;20353;-86
2022/07/27 09:39:46;;;;;;;4.00;1.67;;;;;;;23.67;47.35;99920.28;12206162;19;20042;-85
2022/07/27 09:43:53;;;;;;;7.03;1.80;;;;;;;23.95;46.29;99919.94;12192753;19;20006;-85
2022/07/27 09:48:18;;;;;;;5.45;2.30;;;;;;;24.17;44.65;99920.81;12217997;19;20078;-85
2022/07/27 09:52:25;;;;;;;5.88;2.10;;;;;;;24.13;44.78;99919.88;12191737;19;20007;-87
2022/07/27 09:56:30;;;;;;;7.28;1.83;;;;;;;24.40;43.89;99907.28;12215437;19;20015;-86
2022/07/27 10:00:32;;;;;;;7.47;1.95;;;;;;;24.60;42.80;99900.91;12212133;19;20566;-84
2022/07/27 10:04:35;;;;;;;4.82;1.92;;;;;;;24.47;41.95;99902.78;12181191;19;20007;-83
2022/07/27 10:08:41;;;;;;;13.23;2.30;;;;;;;24.32;43.46;99918.25;12216079;19;20644;-85
2022/07/27 10:12:51;;;;;;;5.55;1.90;;;;;;;24.84;41.92;99900.22;12215184;19;20069;-85
2022/07/27 10:16:57;;;;;;;4.72;1.65;;;;;;;25.50;40.59;99895.84;12189297;19;20029;-84
2022/07/27 10:21:05;;;;;;;6.40;1.70;;;;;;;25.49;40.16;99914.75;12211395;19;20207;-85
2022/07/27 10:25:07;;;;;;;7.50;1.77;;;;;;;25.49;40.21;99906.28;12227397;19;20011;-83
2022/07/27 10:29:12;;;;;;;7.20;1.87;;;;;;;25.52;39.83;99918.88;12186732;19;20457;-82
2022/07/27 10:33:35;;;;;;;8.77;1.85;;;;;;;25.67;39.32;99912.56;12188842;19;20031;-84
2022/07/27 10:37:38;;;;;;;5.45;1.80;;;;;;;25.84;38.74;99909.59;12189687;19;20030;-84
2022/07/27 10:41:42;;;;;;;7.40;2.00;;;;;;;26.13;38.36;99921.88;12213014;19;20034;-84
2022/07/27 10:45:47;;;;;;;7.82;1.80;;;;;;;26.68;37.27;99912.00;12188638;19;20010;-84
2022/07/27 10:50:14;;;;;;;6.38;1.42;;;;;;;26.31;36.89;99922.47;12212529;19;20136;-85
2022/07/27 10:54:31;;;;;;;7.57;1.70;;;;;;;25.80;37.49;99922.72;12212052;19;20014;-84
2022/07/27 10:58:34;;;;;;;6.82;1.90;;;;;;;25.19;38.63;99920.53;12192329;19;20010;-83
2022/07/27 11:02:41;;;;;;;7.40;1.80;;;;;;;25.02;38.86;99929.94;12223105;19;20014;-85
2022/07/27 11:06:44;;;;;;;6.57;1.58;;;;;;;25.31;39.00;99925.38;12245533;19;20011;-86
2022/07/27 11:11:16;;;;;;;4.53;1.52;;;;;;;26.11;37.06;99921.38;12217705;19;20038;-86
2022/07/27 11:15:22;;;;;;;5.15;1.52;;;;;;;26.49;36.12;99911.75;12223328;19;20019;-84
2022/07/27 11:19:28;;;;;;;8.80;2.10;;;;;;;26.44;35.80;99907.13;12199893;19;20002;-85
2022/07/27 11:23:53;;;;;;;6.28;2.08;;;;;;;26.89;36.13;99899.69;12221557;19;20939;-85
2022/07/27 11:28:05;;;;;;;3.30;1.60;;;;;;;26.54;36.41;99898.22;12199909;19;20014;-85
2022/07/27 11:32:07;;;;;;;5.03;1.80;;;;;;;27.04;35.41;99904.59;12217649;19;20077;-85
2022/07/27 11:36:09;;;;;;;4.20;1.90;;;;;;;27.23;34.27;99882.16;12210500;19;20031;-87
2022/07/27 11:40:15;;;;;;;6.00;1.63;;;;;;;27.43;33.56;99887.97;12188275;19;20010;-87
2022/07/27 11:44:45;;;;;;;6.05;1.67;;;;;;;27.88;33.18;99892.44;12213243;19;20007;-86
2022/07/27 11:48:54;;;;;;;4.90;1.55;;;;;;;28.21;31.97;99877.09;12193284;19;20018;-86
2022/07/27 11:53:11;;;;;;;5.03;1.42;;;;;;;28.48;32.12;99881.00;12204382;19;20002;-84
2022/07/27 11:57:19;;;;;;;6.53;1.92;;;;;;;27.87;32.81;99890.78;12213964;19;20011;-84
2022/07/27 12:02:02;;;;;;;8.00;1.60;;;;;;;28.24;31.84;99876.34;12197353;19;20028;-86
2022/07/27 12:06:25;;;;;;;4.95;1.83;;;;;;;29.16;31.29;99868.34;12235089;19;20006;-87
2022/07/27 12:10:59;;;;;;;4.18;1.40;;;;;;;30.24;29.64;99862.66;12184386;19;20035;-87
2022/07/27 12:15:16;;;;;;;4.43;1.40;;;;;;;30.67;27.80;99872.66;12211476;19;20010;-88
2022/07/27 12:19:39;;;;;;;4.38;1.40;;;;;;;30.92;27.71;99872.19;12186544;19;20006;-86
2022/07/27 12:24:09;;;;;;;4.88;1.63;;;;;;;30.41;27.85;99860.09;12208903;19;20023;-88
2022/07/27 12:28:14;;;;;;;4.80;1.73;;;;;;;30.01;28.53;99859.78;12186793;19;20497;-86
2022/07/27 12:32:16;;;;;;;4.80;1.42;;;;;;;28.94;28.80;99865.00;12211659;19;20014;-88
2022/07/27 12:36:25;;;;;;;2.83;1.30;;;;;;;29.13;29.29;99863.41;12213327;19;20010;-88
2022/07/27 12:40:31;;;;;;;4.70;1.83;;;;;;;30.00;28.14;99863.84;12198409;19;20023;-85
2022/07/27 12:44:35;;;;;;;4.03;1.55;;;;;;;29.68;27.67;99858.41;12216736;19;20006;-84
2022/07/27 12:48:41;;;;;;;4.45;1.50;;;;;;;29.69;27.54;99848.72;12188520;19;20019;-85
2022/07/27 12:53:12;;;;;;;2.97;1.58;;;;;;;30.96;27.30;99847.44;12215783;19;20002;-86
2022/07/27 12:57:20;;;;;;;5.65;1.50;;;;;;;32.43;25.34;99841.19;12212603;19;20112;-84
2022/07/27 13:01:42;;;;;;;4.35;1.40;;;;;;;31.83;26.31;99836.66;12197564;19;20074;-87
2022/07/27 13:05:44;;;;;;;;;;;;;;;30.77;27.07;99837.84;12214620;19;20010;-86
2022/07/27 13:09:46;;;;;;;6.20;1.95;;;;;;;30.47;27.63;99832.16;12192284;19;19924;-85
2022/07/27 13:14:04;;;;;;;3.50;1.63;;;;;;;31.52;26.33;99820.88;12214461;19;20006;-86
2022/07/27 13:18:06;;;;;;;;;;;;;;;32.82;24.50;99820.66;12218474;19;20361;-83
2022/07/27 13:22:09;;;;;;;7.53;1.67;;;;;;;33.64;23.75;99825.84;12196423;19;19919;-86
2022/07/27 13:26:11;;;;;;;;;;;;;;;31.91;24.64;99815.56;12220410;19;20010;-87
2022/07/27 13:30:15;;;;;;;3.33;1.80;;;;;;;32.52;24.96;99820.91;12217585;19;20293;-86
2022/07/27 13:34:17;;;;;;;5.60;1.25;;;;;;;33.48;23.81;99815.59;12187459;19;20011;-85
2022/07/27 13:38:19;;;;;;;3.25;1.40;;;;;;;33.70;22.97;99813.63;12211656;19;20010;-84
2022/07/27 13:42:22;;;;;;;5.10;1.60;;;;;;;33.10;23.10;99805.69;12212515;19;20006;-86
2022/07/27 13:46:24;;;;;;;2.28;1.13;;;;;;;31.62;24.95;99811.63;12191680;19;20018;-83
2022/07/27 13:50:26;;;;;;;5.13;1.50;;;;;;;29.99;26.13;99811.91;12216459;19;20006;-86
2022/07/27 13:54:29;;;;;;;2.40;1.10;;;;;;;30.49;26.20;99817.53;12199256;19;20508;-85
2022/07/27 13:58:31;;;;;;;3.80;1.17;;;;;;;31.22;25.14;99818.09;12217541;19;20006;-85
2022/07/27 14:02:32;;;;;;;4.47;1.02;;;;;;;30.17;25.74;99810.16;12219214;19;20024;-85
2022/07/27 14:06:36;;;;;;;10.63;3.85;;;;;;;31.03;25.73;99808.53;12182961;19;20019;-85
2022/07/27 14:10:40;;;;;;;5.18;1.20;;;;;;;33.14;23.63;99797.97;12205207;19;20013;-86
2022/07/27 14:14:42;;;;;;;5.50;1.20;;;;;;;32.74;23.52;99804.72;12211893;19;20003;-85
2022/07/27 14:18:44;;;;;;;2.85;1.08;;;;;;;32.39;23.43;99800.41;12183821;19;20006;-87
2022/07/27 14:22:45;;;;;;;3.17;1.30;;;;;;;32.12;24.22;99803.50;12212581;19;20022;-81
2022/07/27 14:26:47;;;;;;;;;;;;;;;31.89;23.56;99802.88;12211377;19;20007;-82
2022/07/27 14:30:50;;;;;;;6.57;1.42;;;;;;;32.69;23.53;99797.34;12190358;19;20274;-82
2022/07/27 14:34:53;;;;;;;4.43;1.33;;;;;;;34.01;22.46;99805.44;12207075;19;20547;-83
2022/07/27 14:38:55;;;;;;;4.30;1.55;;;;;;;32.91;22.67;99810.50;12209659;19;20018;-82
2022/07/27 14:42:56;;;;;;;5.18;1.40;;;;;;;31.42;24.10;99807.38;12216747;19;20002;-83
2022/07/27 14:46:58;;;;;;;4.50;1.30;;;;;;;31.05;24.46;99810.97;12250995;19;20018;-83
2022/07/27 14:51:00;;;;;;;;;;;;;;;30.15;24.72;99808.88;12239542;19;21345;-84
2022/07/27 14:55:02;;;;;;;4.70;1.73;;;;;;;29.22;25.93;99810.91;12212309;19;19911;-84
2022/07/27 14:59:05;;;;;;;5.18;1.20;;;;;;;28.73;26.16;99810.66;12237022;19;20106;-84
2022/07/27 15:03:07;;;;;;;4.57;1.17;;;;;;;28.49;26.87;99801.25;12228681;19;20025;-80
2022/07/27 15:07:15;;;;;;;3.45;1.05;;;;;;;28.23;27.35;99806.69;12199136;19;20033;-81
2022/07/27 15:11:16;;;;;;;5.25;1.23;;;;;;;27.70;27.67;99810.66;12220221;19;20002;-82
2022/07/27 15:15:19;;;;;;;4.60;1.00;;;;;;;27.20;28.24;99800.03;12215417;19;20015;-83
2022/07/27 15:19:27;;;;;;;2.70;1.10;;;;;;;26.77;28.57;99799.59;12198398;19;20013;-83
2022/07/27 15:23:29;;;;;;;2.85;1.10;;;;;;;26.63;29.12;99804.03;12218992;19;20006;-82
2022/07/27 15:27:32;;;;;;;3.33;1.20;;;;;;;26.52;29.29;99800.84;12185909;19;20034;-83
2022/07/27 15:31:33;;;;;;;8.27;1.83;;;;;;;26.34;29.92;99800.28;12211900;19;20010;-83
2022/07/27 15:35:37;;;;;;;3.42;1.20;;;;;;;26.13;30.33;99791.97;12210791;19;20007;-82
2022/07/27 15:39:39;;;;;;;5.30;1.50;;;;;;;26.06;30.37;99791.75;12193079;19;20029;-83
2022/07/27 15:43:42;;;;;;;4.38;1.35;;;;;;;26.03;30.50;99784.81;12215553;19;19999;-82
2022/07/27 15:47:44;;;;;;;8.83;4.37;;;;;;;25.97;31.20;99786.22;12224438;19;20479;-82
2022/07/27 15:51:53;;;;;;;4.60;1.58;;;;;;;27.01;29.89;99775.25;12209879;19;20018;-81
2022/07/27 15:55:54;;;;;;;3.42;1.00;;;;;;;26.99;29.84;99774.78;12229014;19;20113;-81
2022/07/27 15:59:56;;;;;;;6.20;1.00;;;;;;;26.95;29.36;99766.19;12230800;19;20359;-83
2022/07/27 16:03:58;;;;;;;2.67;1.10;;;;;;;26.59;29.94;99775.63;12202229;19;20467;-80
2022/07/27 16:08:00;;;;;;;3.67;1.33;;;;;;;25.92;30.62;99770.34;12221118;19;20014;-79
2022/07/27 16:12:02;;;;;;;3.13;0.90;;;;;;;25.63;30.49;99776.19;12220540;19;20066;-81
2022/07/27 16:20:26;;;;;;;;;;;;;;;25.33;31.67;99769.91;12220748;19;20017;-82
2022/07/27 16:24:28;;;;;;;6.65;1.52;;;;;;;25.22;31.79;99764.75;12221017;19;19923;-83
2022/07/27 16:28:38;;;;;;;4.32;1.30;;;;;;;24.96;32.00;99764.19;12203443;19;20007;-81
2022/07/27 16:32:40;;;;;;;8.15;1.60;;;;;;;24.86;32.08;99756.13;12218352;19;20017;-82
2022/07/27 16:36:42;;;;;;;1.23;0.80;;;;;;;24.78;32.26;99757.88;12195510;19;20077;-84
2022/07/27 16:40:43;;;;;;;2.75;1.25;;;;;;;24.68;32.40;99758.31;12220864;19;20414;-80
2022/07/27 16:44:45;;;;;;;5.17;1.00;;;;;;;24.66;32.43;99764.28;12215017;19;20048;-81
2022/07/27 16:48:47;;;;;;;2.47;1.00;;;;;;;24.55;32.52;99754.63;12192778;19;20419;-81
2022/07/27 16:52:48;;;;;;;2.00;0.93;;;;;;;24.24;32.72;99758.66;12216539;19;20183;-82
2022/07/27 16:56:50;;;;;;;6.00;2.08;;;;;;;23.99;33.78;99759.66;12211466;19;20102;-81
2022/07/27 17:00:52;;;;;;;2.67;1.10;;;;;;;23.91;33.61;99750.09;12202259;19;20624;-80
2022/07/27 17:04:55;;;;;;;3.42;1.10;;;;;;;23.79;33.62;99752.81;12209797;19;20011;-81
2022/07/27 17:08:56;;;;;;;6.25;1.20;;;;;;;23.66;33.92;99752.69;12215780;19;20022;-81
2022/07/27 17:12:58;;;;;;;7.43;1.65;;;;;;;23.63;34.15;99744.94;12189812;19;20013;-82
2022/07/27 17:17:02;;;;;;;5.13;1.43;;;;;;;23.84;33.77;99752.63;12207708;19;20007;-82
2022/07/27 17:21:18;;;;;;;3.03;1.00;;;;;;;23.97;33.94;99753.53;12210487;19;20053;-82
2022/07/27 17:25:21;;;;;;;;;;;;;;;23.92;33.95;99756.56;12188173;19;20007;-81
2022/07/27 17:29:24;;;;;;;5.15;1.10;;;;;;;24.03;33.46;99758.59;12207789;19;19915;-80
2022/07/27 17:33:25;;;;;;;5.57;1.10;;;;;;;24.24;33.50;99761.47;12207198;19;20084;-82
2022/07/27 17:37:30;;;;;;;11.43;1.40;;;;;;;24.28;33.60;99756.78;12182412;19;20757;-81
2022/07/27 17:41:57;;;;;;;7.23;1.10;;;;;;;24.10;33.77;99758.09;12208182;19;20014;-83
2022/07/27 17:46:00;;;;;;;2.33;0.85;;;;;;;23.99;33.71;99757.66;12186734;19;20014;-83
2022/07/27 17:50:05;;;;;;;3.55;1.23;;;;;;;23.81;33.69;99761.75;12208110;19;19999;-83
2022/07/27 17:54:07;;;;;;;2.33;1.10;;;;;;;23.65;33.82;99753.03;12207811;19;20375;-82
2022/07/27 17:58:09;;;;;;;2.60;1.20;;;;;;;23.50;34.42;99754.44;12177419;19;20007;-83
2022/07/27 18:02:15;;;;;;;2.67;1.00;;;;;;;23.36;34.14;99751.84;12211399;19;20007;-83
2022/07/27 18:06:17;;;;;;;2.08;1.10;;;;;;;23.27;34.67;99758.66;12211820;19;20476;-82
2022/07/27 18:10:19;;;;;;;3.10;1.70;;;;;;;23.16;34.65;99753.38;12184602;19;20020;-83
2022/07/27 18:14:21;;;;;;;4.07;1.30;;;;;;;23.12;34.52;99765.66;12202474;19;20528;-83
2022/07/27 18:18:25;;;;;;;6.72;1.25;;;;;;;23.12;34.51;99774.91;12203723;19;20469;-82
2022/07/27 18:22:27;;;;;;;4.90;0.77;;;;;;;23.06;35.24;99769.81;12221612;19;20011;-86
2022/07/27 18:26:29;;;;;;;3.50;0.82;;;;;;;22.98;35.16;99766.66;12246962;19;20470;-84
2022/07/27 18:30:32;;;;;;;2.40;0.90;;;;;;;22.88;35.48;99780.22;12197806;19;20021;-85
2022/07/27 18:34:34;;;;;;;4.70;1.05;;;;;;;22.70;35.34;99765.38;12204540;19;20007;-85
2022/07/27 18:38:37;;;;;;;2.20;0.80;;;;;;;22.51;35.99;99777.75;12215823;19;20493;-85
2022/07/27 18:42:39;;;;;;;;;;;;;;;22.33;36.36;99783.69;12195228;19;20034;-85
2022/07/27 18:46:41;;;;;;;4.40;0.88;;;;;;;22.14;36.36;99786.78;12201632;19;19914;-85
2022/07/27 18:50:44;;;;;;;3.92;0.90;;;;;;;21.93;36.57;99801.44;12213285;19;20034;-84
2022/07/27 18:54:46;;;;;;;1.73;0.90;;;;;;;21.71;37.07;99799.53;12188473;19;20073;-83
2022/07/27 18:58:48;;;;;;;;;;;;;;;21.52;37.66;99807.38;12212961;19;20353;-83
2022/07/27 19:02:51;;;;;;;5.75;1.00;;;;;;;21.30;38.13;99811.88;12207036;19;19922;-83
2022/07/27 19:06:59;;;;;;;2.88;0.90;;;;;;;21.09;38.47;99813.53;12189347;19;20011;-82
2022/07/27 19:11:02;;;;;;;5.85;1.08;;;;;;;20.92;39.18;99817.06;12199420;19;20515;-83
2022/07/27 19:15:04;;;;;;;5.30;1.00;;;;;;;20.76;39.65;99815.78;12204452;19;20013;-84
2022/07/27 19:19:07;;;;;;;3.28;0.95;;;;;;;20.57;39.49;99825.19;12176488;19;20417;-86